Time;durP1;ratioP1;P1;durP2;ratioP2;P2;SDS_P1;SDS_P2;PMS_P1;PMS_P2;Temp;Humidity;BMP_temperature;BMP_pressure;BME280_temperature;BME280_humidity;BME280_pressure;Samples;Min_cycle;Max_cycle;Signal;HPM_P1;HPM_P2
2022/06/15 00:01:30;;;;;;;;;;;;;;;;;;5079503;28;20385;-75
2022/06/15 00:03:56;;;;;;;;;;;;;;;;;;5097656;28;19916;-75
2022/06/15 00:06:24;;;;;;;;;;;;;;;;;;5079168;28;20350;-76
2022/06/15 00:08:53;;;;;;;;;;;;;;;;;;5096251;28;19971;-76
2022/06/15 00:11:19;;;;;;;;;;;;;;;;;;5079674;28;19959;-76
2022/06/15 00:13:45;;;;;;;;;;;;;;;;;;5079306;28;19920;-75
2022/06/15 00:16:12;;;;;;;;;;;;;;;;;;5079173;28;20281;-76
2022/06/15 00:18:41;;;;;;;;;;;;;;;;;;5079352;28;19926;-76
2022/06/15 00:21:08;;;;;;;;;;;;;;;;;;5079140;28;19916;-76
2022/06/15 00:23:35;;;;;;;;;;;;;;;;;;5077994;28;19923;-75
2022/06/15 00:26:00;;;;;;;;;;;;;;;;;;5075198;28;20301;-76
2022/06/15 00:28:28;;;;;;;;;;;;;;;;;;5075608;28;19970;-76
2022/06/15 00:30:54;;;;;;;;;;;;;;;;;;5081908;28;19916;-75
2022/06/15 00:33:21;;;;;;;;;;;;;;;;;;5078581;28;19923;-76
2022/06/15 00:35:57;;;;;;;;;;;;;;;;;;5078985;28;19923;-75
2022/06/15 00:38:29;;;;;;;;;;;;;;;;;;5095787;28;19920;-76
2022/06/15 00:40:57;;;;;;;;;;;;;;;;;;5078689;28;19923;-76
2022/06/15 00:43:37;;;;;;;;;;;;;;;;;;5078385;28;19920;-75
2022/06/15 00:46:08;;;;;;;;;;;;;;;;;;5078615;28;19923;-76
2022/06/15 00:48:34;;;;;;;;;;;;;;;;;;5078524;28;20011;-76
2022/06/15 00:50:59;;;;;;;;;;;;;;;;;;5078653;28;19916;-76
2022/06/15 00:53:24;;;;;;;;;;;;;;;;;;5078466;28;19923;-75
2022/06/15 00:55:51;;;;;;;;;;;;;;;;;;5078889;28;19916;-75
2022/06/15 00:58:17;;;;;;;;;;;;;;;;;;5094870;28;20004;-76
2022/06/15 01:00:43;;;;;;;;;;;;;;;;;;5078167;28;19971;-76
2022/06/15 01:03:11;;;;;;;;;;;;;;;;;;5095473;28;19924;-76
2022/06/15 01:05:45;;;;;;;;;;;;;;;;;;5095230;28;19923;-75
2022/06/15 01:08:11;;;;;;;;;;;;;;;;;;5095017;28;19920;-76
2022/06/15 01:10:39;;;;;;;;;;;;;;;;;;5078049;28;20297;-76
2022/06/15 01:13:11;;;;;;;;;;;;;;;;;;5078066;28;19923;-76
2022/06/15 01:15:36;;;;;;;;;;;;;;;;;;5095219;28;20336;-76
2022/06/15 01:18:01;;;;;;;;;;;;;;;;;;5094825;28;19920;-76
2022/06/15 01:20:33;;;;;;;;;;;;;;;;;;5078065;28;20006;-75
2022/06/15 01:23:17;;;;;;;;;;;;;;;;;;5094482;28;20377;-76
2022/06/15 01:25:42;;;;;;;;;;;;;;;;;;5094539;28;19916;-75
2022/06/15 01:28:18;;;;;;;;;;;;;;;;;;5077640;28;19917;-76
2022/06/15 01:30:55;;;;;;;;;;;;;;;;;;5077987;28;19916;-76
2022/06/15 01:33:31;;;;;;;;;;;;;;;;;;5077855;28;19951;-75
2022/06/15 01:36:05;;;;;;;;;;;;;;;;;;5095651;28;20002;-76
2022/06/15 01:38:31;;;;;;;;;;;;;;;;;;5094686;28;20381;-75
2022/06/15 01:41:09;;;;;;;;;;;;;;;;;;5077725;28;19912;-76
2022/06/15 01:43:40;;;;;;;;;;;;;;;;;;5077494;28;19999;-76
2022/06/15 01:46:08;;;;;;;;;;;;;;;;;;5077509;28;19916;-76
2022/06/15 01:48:34;;;;;;;;;;;;;;;;;;5094555;28;19916;-76
2022/06/15 01:51:03;;;;;;;;;;;;;;;;;;5077649;28;19920;-78
2022/06/15 01:53:49;;;;;;;;;;;;;;;;;;5079474;28;19923;-78
2022/06/15 01:56:26;;;;;;;;;;;;;;;;;;5079208;28;19926;-77
2022/06/15 01:58:56;;;;;;;;;;;;;;;;;;5096331;28;20377;-77
2022/06/15 02:01:43;;;;;;;;;;;;;;;;;;5078449;28;19920;-77
2022/06/15 02:04:10;;;;;;;;;;;;;;;;;;5062635;28;19939;-78
2022/06/15 02:06:51;;;;;;;;;;;;;;;;;;5079154;28;19916;-78
2022/06/15 02:09:25;;;;;;;;;;;;;;;;;;5096258;28;19927;-78
2022/06/15 02:11:53;;;;;;;;;;;;;;;;;;5079242;28;19916;-77
2022/06/15 02:14:22;;;;;;;;;;;;;;;;;;5078725;28;19920;-77
2022/06/15 02:16:57;;;;;;;;;;;;;;;;;;5095692;28;19969;-78
2022/06/15 02:19:39;;;;;;;;;;;;;;;;;;5079413;28;20020;-78
2022/06/15 02:22:06;;;;;;;;;;;;;;;;;;5095257;28;19916;-77
2022/06/15 02:24:32;;;;;;;;;;;;;;;;;;5095148;28;19916;-77
2022/06/15 02:26:59;;;;;;;;;;;;;;;;;;5096027;28;19920;-77
2022/06/15 02:29:27;;;;;;;;;;;;;;;;;;5078010;28;19969;-77
2022/06/15 02:31:56;;;;;;;;;;;;;;;;;;5077620;28;19922;-77
2022/06/15 02:34:22;;;;;;;;;;;;;;;;;;5096044;28;19972;-77
2022/06/15 02:36:47;;;;;;;;;;;;;;;;;;5077909;28;19916;-77
2022/06/15 02:39:15;;;;;;;;;;;;;;;;;;5078272;28;19959;-77
2022/06/15 02:41:43;;;;;;;;;;;;;;;;;;5094992;28;20314;-77
2022/06/15 02:44:12;;;;;;;;;;;;;;;;;;5077959;28;20484;-77
2022/06/15 02:46:39;;;;;;;;;;;;;;;;;;5079769;28;19989;-80
2022/06/15 02:49:05;;;;;;;;;;;;;;;;;;5097691;28;19943;-80
2022/06/15 02:51:39;;;;;;;;;;;;;;;;;;5080347;28;20358;-78
2022/06/15 02:54:11;;;;;;;;;;;;;;;;;;5096917;28;19916;-79
2022/06/15 02:56:39;;;;;;;;;;;;;;;;;;5096641;28;19916;-78
2022/06/15 02:59:06;;;;;;;;;;;;;;;;;;5080095;28;20301;-78
2022/06/15 03:01:37;;;;;;;;;;;;;;;;;;5077310;28;19920;-77
2022/06/15 03:04:03;;;;;;;;;;;;;;;;;;5093002;28;20015;-78
2022/06/15 03:06:29;;;;;;;;;;;;;;;;;;5092815;28;19924;-78
2022/06/15 03:09:06;;;;;;;;;;;;;;;;;;5092540;28;19934;-77
2022/06/15 03:11:40;;;;;;;;;;;;;;;;;;5092764;28;19916;-78
2022/06/15 03:14:14;;;;;;;;;;;;;;;;;;5076877;28;20385;-78
2022/06/15 03:16:43;;;;;;;;;;;;;;;;;;5075728;28;19920;-78
2022/06/15 03:19:13;;;;;;;;;;;;;;;;;;5093490;28;19923;-77
2022/06/15 03:21:42;;;;;;;;;;;;;;;;;;5076742;28;19923;-78
2022/06/15 03:24:10;;;;;;;;;;;;;;;;;;5072937;28;19955;-77
2022/06/15 03:26:35;;;;;;;;;;;;;;;;;;5056391;28;20435;-77
2022/06/15 03:29:01;;;;;;;;;;;;;;;;;;5055238;28;19927;-77
2022/06/15 03:31:30;;;;;;;;;;;;;;;;;;5056979;28;19917;-78
2022/06/15 03:33:57;;;;;;;;;;;;;;;;;;5056763;28;19916;-77
2022/06/15 03:36:23;;;;;;;;;;;;;;;;;;5056934;28;20424;-77
2022/06/15 03:38:48;;;;;;;;;;;;;;;;;;5074697;28;19921;-78
2022/06/15 03:41:26;;;;;;;;;;;;;;;;;;5058276;28;19999;-77
2022/06/15 03:43:55;;;;;;;;;;;;;;;;;;5057269;28;19916;-77
2022/06/15 03:46:25;;;;;;;;;;;;;;;;;;5057637;28;19975;-77
2022/06/15 03:48:56;;;;;;;;;;;;;;;;;;5057215;28;20416;-78
2022/06/15 03:51:22;;;;;;;;;;;;;;;;;;5056322;28;19917;-78
2022/06/15 03:53:55;;;;;;;;;;;;;;;;;;5058398;28;19924;-77
2022/06/15 03:56:21;;;;;;;;;;;;;;;;;;5093316;28;19916;-77
2022/06/15 03:58:47;;;;;;;;;;;;;;;;;;5093044;28;20381;-77
2022/06/15 04:01:19;;;;;;;;;;;;;;;;;;5092509;28;19954;-77
2022/06/15 04:03:45;;;;;;;;;;;;;;;;;;5075952;28;20069;-78
2022/06/15 04:06:21;;;;;;;;;;;;;;;;;;5077860;28;19916;-77
2022/06/15 04:08:52;;;;;;;;;;;;;;;;;;5077396;28;19927;-77
2022/06/15 04:14:19;;;;;;;;;;;;;;;;;;5073901;28;19920;-78
2022/06/15 04:16:54;;;;;;;;;;;;;;;;;;5073223;28;19969;-78
2022/06/15 04:19:25;;;;;;;;;;;;;;;;;;5076553;28;19928;-78
2022/06/15 04:21:51;;;;;;;;;;;;;;;;;;5076646;28;19923;-78
2022/06/15 04:24:18;;;;;;;;;;;;;;;;;;5093779;28;19920;-77
2022/06/15 04:26:49;;;;;;;;;;;;;;;;;;5077253;28;19924;-77
2022/06/15 04:29:19;;;;;;;;;;;;;;;;;;5076747;28;19920;-77
2022/06/15 04:31:49;;;;;;;;;;;;;;;;;;5058477;28;19917;-77
2022/06/15 04:34:20;;;;;;;;;;;;;;;;;;5072800;28;19916;-77
2022/06/15 04:36:47;;;;;;;;;;;;;;;;;;5072797;28;19917;-77
2022/06/15 04:39:14;;;;;;;;;;;;;;;;;;5056055;28;20399;-77
2022/06/15 04:41:45;;;;;;;;;;;;;;;;;;5076666;28;20007;-77
2022/06/15 04:44:11;;;;;;;;;;;;;;;;;;5076887;28;19916;-77
2022/06/15 04:46:40;;;;;;;;;;;;;;;;;;5060114;28;19920;-78
2022/06/15 04:49:08;;;;;;;;;;;;;;;;;;5077493;28;19920;-77
2022/06/15 04:51:52;;;;;;;;;;;;;;;;;;5075627;28;19916;-77
2022/06/15 04:54:20;;;;;;;;;;;;;;;;;;5077206;28;19925;-78
2022/06/15 04:56:52;;;;;;;;;;;;;;;;;;5077376;28;19940;-78
2022/06/15 04:59:19;;;;;;;;;;;;;;;;;;5077840;28;19916;-78
2022/06/15 05:01:48;;;;;;;;;;;;;;;;;;5077921;28;19987;-78
2022/06/15 05:04:16;;;;;;;;;;;;;;;;;;5079256;28;19916;-78
2022/06/15 05:06:42;;;;;;;;;;;;;;;;;;5078928;28;20360;-78
2022/06/15 05:09:11;;;;;;;;;;;;;;;;;;5078998;28;19928;-78
2022/06/15 05:11:36;;;;;;;;;;;;;;;;;;5079225;28;19943;-78
2022/06/15 05:14:03;;;;;;;;;;;;;;;;;;5077382;28;19923;-78
2022/06/15 05:16:33;;;;;;;;;;;;;;;;;;5077415;28;19917;-77
2022/06/15 05:19:00;;;;;;;;;;;;;;;;;;5075541;28;19923;-77
2022/06/15 05:21:28;;;;;;;;;;;;;;;;;;5074853;28;19923;-77
2022/06/15 05:23:55;;;;;;;;;;;;;;;;;;5061069;28;19932;-79
2022/06/15 05:26:41;;;;;;;;;;;;;;;;;;5076264;28;19927;-78
2022/06/15 05:29:08;;;;;;;;;;;;;;;;;;5059691;28;19921;-76
2022/06/15 05:31:34;;;;;;;;;;;;;;;;;;5074878;28;19924;-77
2022/06/15 05:33:59;;;;;;;;;;;;;;;;;;5075095;28;19932;-77
2022/06/15 05:36:27;;;;;;;;;;;;;;;;;;5057837;28;20357;-75
2022/06/15 05:38:53;;;;;;;;;;;;;;;;;;5057563;28;20369;-75
2022/06/15 05:41:19;;;;;;;;;;;;;;;;;;5074166;28;20011;-75
2022/06/15 05:46:26;;;;;;;;;;;;;;;;;;5072551;28;19943;-74
2022/06/15 05:48:52;;;;;;;;;;;;;;;;;;5071952;28;19920;-75
2022/06/15 05:51:21;;;;;;;;;;;;;;;;;;5072419;28;19920;-74
2022/06/15 05:53:46;;;;;;;;;;;;;;;;;;5078451;28;19923;-75
2022/06/15 05:56:12;;;;;;;;;;;;;;;;;;5073681;28;20364;-74
2022/06/15 05:58:39;;;;;;;;;;;;;;;;;;5056559;28;19921;-74
2022/06/15 06:01:09;;;;;;;;;;;;;;;;;;5073230;28;19999;-74
2022/06/15 06:03:34;;;;;;;;;;;;;;;;;;5074913;28;20347;-75
2022/06/15 06:06:00;;;;;;;;;;;;;;;;;;5073787;28;20361;-74
2022/06/15 06:08:25;;;;;;;;;;;;;;;;;;5057003;28;19921;-74
2022/06/15 06:10:51;;;;;;;;;;;;;;;;;;5074578;28;19961;-75
2022/06/15 06:13:16;;;;;;;;;;;;;;;;;;5073026;28;19916;-74
2022/06/15 06:15:41;;;;;;;;;;;;;;;;;;5074832;28;20016;-75
2022/06/15 06:18:07;;;;;;;;;;;;;;;;;;5074848;28;19917;-75
2022/06/15 06:20:32;;;;;;;;;;;;;;;;;;5073569;28;19916;-75
2022/06/15 06:22:58;;;;;;;;;;;;;;;;;;5080080;28;19916;-75
2022/06/15 06:25:25;;;;;;;;;;;;;;;;;;5093702;28;20320;-75
2022/06/15 06:27:52;;;;;;;;;;;;;;;;;;5094895;28;19973;-75
2022/06/15 06:30:21;;;;;;;;;;;;;;;;;;5093232;28;19955;-75
2022/06/15 06:32:46;;;;;;;;;;;;;;;;;;5076364;28;19916;-76
2022/06/15 06:35:12;;;;;;;;;;;;;;;;;;5094244;28;19963;-76
2022/06/15 06:37:38;;;;;;;;;;;;;;;;;;5076741;28;19916;-76
2022/06/15 06:40:05;;;;;;;;;;;;;;;;;;5093414;28;19969;-76
2022/06/15 06:42:30;;;;;;;;;;;;;;;;;;5093506;28;20296;-76
2022/06/15 06:44:57;;;;;;;;;;;;;;;;;;5093595;28;19941;-76
2022/06/15 06:47:23;;;;;;;;;;;;;;;;;;5075934;28;20460;-76
2022/06/15 06:49:48;;;;;;;;;;;;;;;;;;5092518;28;19927;-77
2022/06/15 06:52:14;;;;;;;;;;;;;;;;;;5093552;28;19951;-76
2022/06/15 06:54:41;;;;;;;;;;;;;;;;;;5058192;28;19923;-80
2022/06/15 06:57:09;;;;;;;;;;;;;;;;;;5084253;28;19939;-79
2022/06/15 06:59:35;;;;;;;;;;;;;;;;;;5078671;28;20362;-78
2022/06/15 07:02:01;;;;;;;;;;;;;;;;;;5096001;28;19916;-77
2022/06/15 07:04:26;;;;;;;;;;;;;;;;;;5077505;28;20457;-77
2022/06/15 07:06:54;;;;;;;;;;;;;;;;;;5077753;28;20396;-78
2022/06/15 07:09:19;;;;;;;;;;;;;;;;;;5077472;28;19963;-77
2022/06/15 07:11:45;;;;;;;;;;;;;;;;;;5092325;28;19915;-78
2022/06/15 07:14:15;;;;;;;;;;;;;;;;;;5081804;28;19923;-78
2022/06/15 07:16:42;;;;;;;;;;;;;;;;;;5080571;28;20014;-79
2022/06/15 07:19:11;;;;;;;;;;;;;;;;;;5116375;28;19950;-79
2022/06/15 07:21:37;;;;;;;;;;;;;;;;;;5098289;28;19916;-79
2022/06/15 07:24:03;;;;;;;;;;;;;;;;;;5078259;28;19935;-79
2022/06/15 07:26:30;;;;;;;;;;;;;;;;;;5077995;28;20266;-79
2022/06/15 07:28:57;;;;;;;;;;;;;;;;;;5078000;28;19926;-79
2022/06/15 07:31:28;;;;;;;;;;;;;;;;;;5078035;28;19916;-79
2022/06/15 07:33:55;;;;;;;;;;;;;;;;;;5061069;28;19916;-79
2022/06/15 07:36:23;;;;;;;;;;;;;;;;;;5061782;28;19916;-83
2022/06/15 07:38:49;;;;;;;;;;;;;;;;;;5060773;28;19982;-78
2022/06/15 07:41:14;;;;;;;;;;;;;;;;;;5077966;28;20487;-79
2022/06/15 07:43:41;;;;;;;;;;;;;;;;;;5095593;28;19923;-78
2022/06/15 07:46:07;;;;;;;;;;;;;;;;;;5095526;28;19923;-78
2022/06/15 07:51:25;;;;;;;;;;;;;;;;;;5074023;28;19916;-78
2022/06/15 07:53:50;;;;;;;;;;;;;;;;;;5106606;28;19960;-78
2022/06/15 07:56:16;;;;;;;;;;;;;;;;;;5096333;28;19945;-77
2022/06/15 07:58:41;;;;;;;;;;;;;;;;;;5079011;28;19915;-77
2022/06/15 08:01:06;;;;;;;;;;;;;;;;;;5095353;28;20308;-77
2022/06/15 08:03:32;;;;;;;;;;;;;;;;;;5096475;28;19919;-78
2022/06/15 08:05:57;;;;;;;;;;;;;;;;;;5099958;28;20372;-78
2022/06/15 08:08:24;;;;;;;;;;;;;;;;;;5116790;28;19920;-78
2022/06/15 08:10:50;;;;;;;;;;;;;;;;;;5116148;28;19940;-78
2022/06/15 08:13:18;;;;;;;;;;;;;;;;;;5080215;28;19923;-77
2022/06/15 08:15:45;;;;;;;;;;;;;;;;;;5081010;28;19924;-77
2022/06/15 08:18:15;;;;;;;;;;;;;;;;;;5084899;28;19911;-79
2022/06/15 08:20:43;;;;;;;;;;;;;;;;;;5089393;28;19916;-79
2022/06/15 08:23:10;;;;;;;;;;;;;;;;;;5102291;28;19922;-80
2022/06/15 08:25:40;;;;;;;;;;;;;;;;;;5102949;28;19920;-80
2022/06/15 08:28:08;;;;;;;;;;;;;;;;;;5085775;28;19920;-80
2022/06/15 08:30:37;;;;;;;;;;;;;;;;;;5085791;28;20380;-81
2022/06/15 08:33:05;;;;;;;;;;;;;;;;;;5102942;28;19916;-80
2022/06/15 08:35:31;;;;;;;;;;;;;;;;;;5085044;28;19916;-78
2022/06/15 08:37:57;;;;;;;;;;;;;;;;;;5100862;28;19955;-77
2022/06/15 08:40:22;;;;;;;;;;;;;;;;;;5099908;28;19915;-77
2022/06/15 08:42:48;;;;;;;;;;;;;;;;;;5119364;28;20376;-79
2022/06/15 08:45:16;;;;;;;;;;;;;;;;;;5121021;28;19922;-79
2022/06/15 08:47:47;;;;;;;;;;;;;;;;;;5101445;28;19920;-78
2022/06/15 08:50:20;;;;;;;;;;;;;;;;;;5099604;28;20044;-77
2022/06/15 08:52:50;;;;;;;;;;;;;;;;;;5117388;28;20290;-77
2022/06/15 08:55:43;;;;;;;;;;;;;;;;;;5099196;28;19923;-78
2022/06/15 08:58:16;;;;;;;;;;;;;;;;;;5078191;28;20018;-77
2022/06/15 09:00:43;;;;;;;;;;;;;;;;;;5098168;28;19973;-78
2022/06/15 09:03:14;;;;;;;;;;;;;;;;;;5117480;28;19915;-77
2022/06/15 09:06:06;;;;;;;;;;;;;;;;;;5117062;28;19926;-77
2022/06/15 09:08:37;;;;;;;;;;;;;;;;;;5094159;28;19923;-78
2022/06/15 09:11:22;;;;;;;;;;;;;;;;;;5082324;28;19915;-78
2022/06/15 09:13:55;;;;;;;;;;;;;;;;;;5099532;28;20361;-78
2022/06/15 09:16:29;;;;;;;;;;;;;;;;;;5100595;28;19920;-78
2022/06/15 09:19:01;;;;;;;;;;;;;;;;;;5100843;28;19969;-78
2022/06/15 09:21:30;;;;;;;;;;;;;;;;;;5099506;28;19916;-77
2022/06/15 09:23:58;;;;;;;;;;;;;;;;;;5082610;28;20433;-78
2022/06/15 09:26:27;;;;;;;;;;;;;;;;;;5097626;28;19923;-78
2022/06/15 09:28:59;;;;;;;;;;;;;;;;;;5082739;28;20390;-78
2022/06/15 09:31:26;;;;;;;;;;;;;;;;;;5116932;28;19916;-78
2022/06/15 09:33:55;;;;;;;;;;;;;;;;;;5079707;28;19920;-77
2022/06/15 09:36:24;;;;;;;;;;;;;;;;;;5063460;28;19977;-78
2022/06/15 09:38:49;;;;;;;;;;;;;;;;;;5063805;28;19920;-79
2022/06/15 09:41:24;;;;;;;;;;;;;;;;;;5063165;28;19965;-78
2022/06/15 09:44:02;;;;;;;;;;;;;;;;;;5064729;28;19916;-78
2022/06/15 09:46:33;;;;;;;;;;;;;;;;;;5064292;28;19916;-77
2022/06/15 09:49:04;;;;;;;;;;;;;;;;;;5077625;28;20116;-77
2022/06/15 09:51:33;;;;;;;;;;;;;;;;;;5078075;28;19916;-77
2022/06/15 09:54:20;;;;;;;;;;;;;;;;;;5096037;28;19920;-77
2022/06/15 09:56:46;;;;;;;;;;;;;;;;;;5077372;28;20398;-76
2022/06/15 09:59:14;;;;;;;;;;;;;;;;;;5077038;28;20008;-76
2022/06/15 10:01:43;;;;;;;;;;;;;;;;;;5063876;28;19995;-80
2022/06/15 10:04:21;;;;;;;;;;;;;;;;;;5079548;28;19938;-80
2022/06/15 10:06:58;;;;;;;;;;;;;;;;;;5080870;28;19923;-81
2022/06/15 10:09:26;;;;;;;;;;;;;;;;;;5081433;28;19959;-81
2022/06/15 10:11:54;;;;;;;;;;;;;;;;;;5096032;28;19916;-80
2022/06/15 10:14:25;;;;;;;;;;;;;;;;;;5096853;28;19927;-80
2022/06/15 10:16:56;;;;;;;;;;;;;;;;;;5096161;28;19900;-78
2022/06/15 10:19:24;;;;;;;;;;;;;;;;;;5070843;28;19923;-78
2022/06/15 10:22:12;;;;;;;;;;;;;;;;;;5061377;28;19969;-78
2022/06/15 10:24:42;;;;;;;;;;;;;;;;;;5077339;28;20285;-79
2022/06/15 10:27:17;;;;;;;;;;;;;;;;;;5079521;28;19916;-83
2022/06/15 10:29:44;;;;;;;;;;;;;;;;;;5065270;28;20449;-83
2022/06/15 10:32:10;;;;;;;;;;;;;;;;;;5063841;28;20385;-83
2022/06/15 10:34:50;;;;;;;;;;;;;;;;;;5081888;28;19938;-83
2022/06/15 10:37:20;;;;;;;;;;;;;;;;;;5080180;28;19930;-84
2022/06/15 10:39:50;;;;;;;;;;;;;;;;;;5078041;28;20014;-85
2022/06/15 10:42:21;;;;;;;;;;;;;;;;;;5077059;28;20293;-85
2022/06/15 10:44:56;;;;;;;;;;;;;;;;;;5060652;28;19916;-87
2022/06/15 10:47:23;;;;;;;;;;;;;;;;;;5077046;28;20289;-87
2022/06/15 10:49:51;;;;;;;;;;;;;;;;;;5077519;28;19935;-84
2022/06/15 10:52:23;;;;;;;;;;;;;;;;;;5076837;28;19923;-84
2022/06/15 11:03:18;;;;;;;;;;;;;;;;;;5086119;28;19923;-78
2022/06/15 11:05:45;;;;;;;;;;;;;;;;;;5099519;28;20400;-82
2022/06/15 11:08:13;;;;;;;;;;;;;;;;;;5070624;28;19920;-80
2022/06/15 11:10:41;;;;;;;;;;;;;;;;;;5071466;28;19935;-80
2022/06/15 11:13:16;;;;;;;;;;;;;;;;;;5106410;28;19923;-81
2022/06/15 11:18:32;;;;;;;;;;;;;;;;;;5107045;28;19922;-81
2022/06/15 11:20:58;;;;;;;;;;;;;;;;;;5069081;28;20369;-79
2022/06/15 11:23:42;;;;;;;;;;;;;;;;;;5104481;28;19923;-78
2022/06/15 11:29:01;;;;;;;;;;;;;;;;;;5096304;28;19966;-77
2022/06/15 11:31:28;;;;;;;;;;;;;;;;;;5097722;28;20292;-79
2022/06/15 11:34:00;;;;;;;;;;;;;;;;;;5081047;28;19923;-79
2022/06/15 11:36:31;;;;;;;;;;;;;;;;;;5097500;28;19915;-79
2022/06/15 11:38:59;;;;;;;;;;;;;;;;;;5096532;28;20014;-79
2022/06/15 11:41:27;;;;;;;;;;;;;;;;;;5116722;28;19922;-80
2022/06/15 11:43:54;;;;;;;;;;;;;;;;;;5078999;28;20010;-77
2022/06/15 11:46:46;;;;;;;;;;;;;;;;;;5080895;28;20322;-80
2022/06/15 11:49:35;;;;;;;;;;;;;;;;;;5098967;28;19920;-79
2022/06/15 11:52:15;;;;;;;;;;;;;;;;;;5072443;28;20448;-79
2022/06/15 11:54:47;;;;;;;;;;;;;;;;;;5082818;28;19916;-79
2022/06/15 11:57:21;;;;;;;;;;;;;;;;;;5071531;28;19916;-78
2022/06/15 11:59:52;;;;;;;;;;;;;;;;;;5106860;28;19928;-82
2022/06/15 12:02:33;;;;;;;;;;;;;;;;;;5094964;28;19924;-81
2022/06/15 12:05:16;;;;;;;;;;;;;;;;;;5109128;28;19955;-81
2022/06/15 12:07:52;;;;;;;;;;;;;;;;;;5086831;28;20015;-82
2022/06/15 12:10:20;;;;;;;;;;;;;;;;;;5086513;28;19923;-79
2022/06/15 12:12:46;;;;;;;;;;;;;;;;;;5066724;28;20251;-78
2022/06/15 12:15:31;;;;;;;;;;;;;;;;;;5099328;28;19922;-78
2022/06/15 12:17:59;;;;;;;;;;;;;;;;;;5082339;28;19973;-79
2022/06/15 12:20:37;;;;;;;;;;;;;;;;;;5083305;28;19923;-79
2022/06/15 12:23:20;;;;;;;;;;;;;;;;;;5087664;28;19970;-79
2022/06/15 12:25:55;;;;;;;;;;;;;;;;;;5085514;28;19915;-78
2022/06/15 12:28:42;;;;;;;;;;;;;;;;;;5084919;28;20270;-78
2022/06/15 12:31:13;;;;;;;;;;;;;;;;;;5035180;28;19916;-78
2022/06/15 12:33:47;;;;;;;;;;;;;;;;;;5085658;28;19923;-79
2022/06/15 12:36:19;;;;;;;;;;;;;;;;;;5103082;28;19916;-79
2022/06/15 12:39:09;;;;;;;;;;;;;;;;;;5086210;28;20009;-79
2022/06/15 12:44:24;;;;;;;;;;;;;;;;;;5101895;28;19916;-78
2022/06/15 12:46:53;;;;;;;;;;;;;;;;;;5085975;28;19935;-80
2022/06/15 12:49:27;;;;;;;;;;;;;;;;;;5122293;28;19919;-80
2022/06/15 12:52:05;;;;;;;;;;;;;;;;;;5104257;28;19915;-81
2022/06/15 12:54:51;;;;;;;;;;;;;;;;;;5067808;28;20302;-77
2022/06/15 12:57:27;;;;;;;;;;;;;;;;;;5080059;28;20023;-78
2022/06/15 13:00:02;;;;;;;;;;;;;;;;;;5096445;28;19920;-77
2022/06/15 13:02:32;;;;;;;;;;;;;;;;;;5079890;28;19922;-77
2022/06/15 13:05:00;;;;;;;;;;;;;;;;;;5096719;28;19920;-77
2022/06/15 13:07:28;;;;;;;;;;;;;;;;;;5078286;28;19916;-77
2022/06/15 13:10:09;;;;;;;;;;;;;;;;;;5078593;28;19955;-77
2022/06/15 13:12:35;;;;;;;;;;;;;;;;;;5078476;28;19955;-77
2022/06/15 13:15:03;;;;;;;;;;;;;;;;;;5061760;28;19962;-77
2022/06/15 13:18:06;;;;;;;;;;;;;;;;;;5078062;28;19916;-77
2022/06/15 13:20:32;;;;;;;;;;;;;;;;;;5078156;28;19965;-77
2022/06/15 13:22:57;;;;;;;;;;;;;;;;;;5082745;28;19934;-77
2022/06/15 13:25:22;;;;;;;;;;;;;;;;;;5105475;28;20014;-79
2022/06/15 13:28:08;;;;;;;;;;;;;;;;;;5084118;28;19920;-79
2022/06/15 13:30:54;;;;;;;;;;;;;;;;;;5098243;28;20286;-79
2022/06/15 13:33:23;;;;;;;;;;;;;;;;;;5090732;28;19923;-79
2022/06/15 13:36:09;;;;;;;;;;;;;;;;;;5122820;27;20048;-79
2022/06/15 13:38:35;;;;;;;;;;;;;;;;;;5066817;28;19916;-79
2022/06/15 13:41:00;;;;;;;;;;;;;;;;;;5127724;27;20392;-79
2022/06/15 13:43:27;;;;;;;;;;;;;;;;;;5100241;28;19922;-79
2022/06/15 13:45:54;;;;;;;;;;;;;;;;;;5118757;28;19916;-79
2022/06/15 13:48:29;;;;;;;;;;;;;;;;;;5083498;28;20377;-79
2022/06/15 13:50:55;;;;;;;;;;;;;;;;;;5083315;28;19919;-79
2022/06/15 13:53:39;;;;;;;;;;;;;;;;;;5100611;28;20320;-79
2022/06/15 13:56:24;;;;;;;;;;;;;;;;;;5100336;28;19922;-79
2022/06/15 13:59:02;;;;;;;;;;;;;;;;;;5082841;28;20389;-78
2022/06/15 14:01:46;;;;;;;;;;;;;;;;;;5065742;28;19969;-79
2022/06/15 14:04:30;;;;;;;;;;;;;;;;;;5079840;28;19920;-79
2022/06/15 14:07:03;;;;;;;;;;;;;;;;;;5062182;28;20266;-78
2022/06/15 14:09:35;;;;;;;;;;;;;;;;;;5079726;28;19959;-79
2022/06/15 14:12:11;;;;;;;;;;;;;;;;;;5097726;28;19920;-79
2022/06/15 14:14:44;;;;;;;;;;;;;;;;;;5114574;28;19916;-77
2022/06/15 14:17:18;;;;;;;;;;;;;;;;;;5097086;28;20591;-77
2022/06/15 14:19:45;;;;;;;;;;;;;;;;;;5114200;28;19922;-77
2022/06/15 14:22:13;;;;;;;;;;;;;;;;;;5114256;28;19947;-78
2022/06/15 14:24:39;;;;;;;;;;;;;;;;;;5099713;28;19915;-80
2022/06/15 14:27:06;;;;;;;;;;;;;;;;;;5106648;28;19922;-80
2022/06/15 14:29:36;;;;;;;;;;;;;;;;;;5100382;28;19920;-84
2022/06/15 14:32:01;;;;;;;;;;;;;;;;;;5084557;28;19999;-81
2022/06/15 14:34:29;;;;;;;;;;;;;;;;;;5080329;28;19953;-81
2022/06/15 14:36:59;;;;;;;;;;;;;;;;;;5085765;28;20328;-80
2022/06/15 14:39:36;;;;;;;;;;;;;;;;;;5099766;28;19966;-80
2022/06/15 14:42:06;;;;;;;;;;;;;;;;;;5100122;28;19916;-80
2022/06/15 14:44:32;;;;;;;;;;;;;;;;;;5119211;28;19923;-83
2022/06/15 14:47:02;;;;;;;;;;;;;;;;;;5100124;28;19915;-80
2022/06/15 14:49:29;;;;;;;;;;;;;;;;;;5082920;28;19920;-82
2022/06/15 14:52:14;;;;;;;;;;;;;;;;;;5083154;28;19915;-81
2022/06/15 14:54:40;;;;;;;;;;;;;;;;;;5100403;28;19916;-81
2022/06/15 14:57:06;;;;;;;;;;;;;;;;;;5083255;28;19915;-81
2022/06/15 15:00:11;;;;;;;;;;;;;;;;;;5083881;28;19922;-81
2022/06/15 15:02:39;;;;;;;;;;;;;;;;;;4966843;28;19941;-81
2022/06/15 15:05:04;;;;;;;;;;;;;;;;;;5066488;28;19919;-79
2022/06/15 15:10:19;;;;;;;;;;;;;;;;;;5097335;28;20006;-79
2022/06/15 15:12:46;;;;;;;;;;;;;;;;;;5096588;28;19972;-80
2022/06/15 15:15:11;;;;;;;;;;;;;;;;;;5077900;28;19920;-82
2022/06/15 15:17:47;;;;;;;;;;;;;;;;;;5062578;28;19938;-81
2022/06/15 15:20:34;;;;;;;;;;;;;;;;;;5062825;28;20395;-79
2022/06/15 15:23:00;;;;;;;;;;;;;;;;;;5065677;28;19927;-80
2022/06/15 15:25:49;;;;;;;;;;;;;;;;;;5082362;28;19915;-79
2022/06/15 15:34:12;;;;;;;;;;;;;;;;;;5098902;28;19969;-84
2022/06/15 15:39:39;;;;;;;;;;;;;;;;;;5097501;28;19916;-83
2022/06/15 15:42:07;;;;;;;;;;;;;;;;;;5079531;28;20396;-83
2022/06/15 15:44:32;;;;;;;;;;;;;;;;;;5062175;28;19923;-84
2022/06/15 15:46:57;;;;;;;;;;;;;;;;;;5076842;28;19916;-82
2022/06/15 15:49:23;;;;;;;;;;;;;;;;;;5063632;28;19928;-81
2022/06/15 15:51:49;;;;;;;;;;;;;;;;;;5064739;28;19923;-82
2022/06/15 15:54:14;;;;;;;;;;;;;;;;;;5063871;28;19930;-80
2022/06/15 15:56:46;;;;;;;;;;;;;;;;;;5070833;28;19948;-79
2022/06/15 15:59:12;;;;;;;;;;;;;;;;;;5079964;28;19916;-79
2022/06/15 16:01:38;;;;;;;;;;;;;;;;;;5097686;28;20312;-79
2022/06/15 16:04:05;;;;;;;;;;;;;;;;;;5079478;28;19948;-79
2022/06/15 16:06:32;;;;;;;;;;;;;;;;;;5063460;28;19916;-79
2022/06/15 16:08:59;;;;;;;;;;;;;;;;;;5062966;28;19927;-79
2022/06/15 16:11:25;;;;;;;;;;;;;;;;;;5062521;28;19916;-79
2022/06/15 16:13:54;;;;;;;;;;;;;;;;;;5077318;28;19955;-82
2022/06/15 16:16:19;;;;;;;;;;;;;;;;;;5078142;28;19916;-84
2022/06/15 16:18:45;;;;;;;;;;;;;;;;;;5098079;28;19920;-83
2022/06/15 16:21:11;;;;;;;;;;;;;;;;;;5084687;28;19919;-85
2022/06/15 16:23:38;;;;;;;;;;;;;;;;;;5085175;28;20385;-82
2022/06/15 16:26:05;;;;;;;;;;;;;;;;;;5076964;28;20262;-81
2022/06/15 16:28:32;;;;;;;;;;;;;;;;;;5091992;28;20235;-82
2022/06/15 16:31:00;;;;;;;;;;;;;;;;;;5095881;28;19923;-80
2022/06/15 16:33:27;;;;;;;;;;;;;;;;;;5097244;28;20400;-80
2022/06/15 16:35:53;;;;;;;;;;;;;;;;;;5096959;28;19923;-79
2022/06/15 16:38:22;;;;;;;;;;;;;;;;;;5106696;28;19915;-81
2022/06/15 16:40:48;;;;;;;;;;;;;;;;;;5105471;28;19916;-83
2022/06/15 16:43:15;;;;;;;;;;;;;;;;;;5087718;28;19916;-83
2022/06/15 16:45:40;;;;;;;;;;;;;;;;;;5088690;28;19919;-83
2022/06/15 16:48:08;;;;;;;;;;;;;;;;;;5088571;28;19926;-81
2022/06/15 16:50:35;;;;;;;;;;;;;;;;;;5088154;28;19923;-80
2022/06/15 16:53:04;;;;;;;;;;;;;;;;;;5078926;28;20029;-85
2022/06/15 16:55:42;;;;;;;;;;;;;;;;;;5083341;28;19970;-84
2022/06/15 16:58:08;;;;;;;;;;;;;;;;;;5083499;28;20381;-82
2022/06/15 17:00:34;;;;;;;;;;;;;;;;;;5081330;28;19921;-83
2022/06/15 17:03:00;;;;;;;;;;;;;;;;;;5063975;28;19969;-81
2022/06/15 17:05:25;;;;;;;;;;;;;;;;;;5064171;28;19966;-82
2022/06/15 17:07:51;;;;;;;;;;;;;;;;;;5063558;28;19921;-81
2022/06/15 17:10:20;;;;;;;;;;;;;;;;;;5088413;28;19918;-80
2022/06/15 17:12:46;;;;;;;;;;;;;;;;;;5098498;28;19916;-82
2022/06/15 17:15:15;;;;;;;;;;;;;;;;;;5098774;28;20350;-79
2022/06/15 17:17:40;;;;;;;;;;;;;;;;;;5085116;28;19921;-79
2022/06/15 17:20:06;;;;;;;;;;;;;;;;;;5084346;28;19931;-81
2022/06/15 17:22:33;;;;;;;;;;;;;;;;;;5083709;28;20417;-80
2022/06/15 17:25:01;;;;;;;;;;;;;;;;;;5079333;28;19921;-81
2022/06/15 17:27:28;;;;;;;;;;;;;;;;;;5070493;28;19923;-79
2022/06/15 17:29:54;;;;;;;;;;;;;;;;;;5083296;28;19916;-82
2022/06/15 17:32:19;;;;;;;;;;;;;;;;;;5095772;28;19916;-84
2022/06/15 17:34:44;;;;;;;;;;;;;;;;;;5077829;28;19926;-84
2022/06/15 17:37:11;;;;;;;;;;;;;;;;;;5077916;28;19920;-85
2022/06/15 17:39:37;;;;;;;;;;;;;;;;;;5077582;28;19966;-85
2022/06/15 17:42:03;;;;;;;;;;;;;;;;;;5094675;28;19916;-85